Wild Boar Gully, Santa Catalina Island Weather observations

Data are for 10 minute period ending at time listed.
 Day   Time   Solar   Ave.   Ave.  Ave.  Vector    Max.   Stn.    Total
  of    of     Rad.   Air    Rel.  Wind   Wind     Wind   Baro.  Precip.
Year   Day            Temp.  Hum.  Speed  Dir.     Gust   Pres.         
2014   (PST)   W/m2    F      %     mph   deg.      mph    mb.     in.  
------------------------------------------------------------------------
 109   16:00  388.0    64   75.4    17    278.1    22.1    999.0   0.00  
 109   16:10  361.0    64   75.6    18    275.6    23.9    999.0   0.00  
 109   16:20  332.0    63   76.2    18    278.3    23.3    999.0   0.00  
 109   16:30  303.0    63   76.4    17    277.9    23.3    999.0   0.00  
 109   16:40  274.0    64   75.1    15    284.9    21.5    999.0   0.00  
 109   16:50  245.0    64   74.4    15    278.7    20.9    999.0   0.00  
 109   17:00  216.0    63   75.7    16    275.3    22.1    999.0   0.00  
 109   17:10  186.0    63   76.6    16    275.3    23.3    999.0   0.00  
 109   17:20  151.0    62   77.7    16    281.2    22.7    999.0   0.00  
 109   17:30  115.0    61   78.7    16    291.1    22.7    999.0   0.00  
 109   17:40   91.0    61   79.5    17    288.8    23.3    999.0   0.00  
 109   17:50   71.0    61   78.6    14    300.4    17.9    999.0   0.00  
 109   18:00   40.0    61   75.2    14    290.2    18.5    999.0   0.00  
 109   18:10   26.0    61   74.4    13    292.4    17.3    999.0   0.00  
 109   18:20   15.0    61   74.1    11    290.5    15.5    999.0   0.00  
 109   18:30    7.0    62   72.6     7    296.0    13.1    999.0   0.00  
 109   18:40    1.0    63   69.9     6    288.3    10.8    999.0   0.00  
 109   18:50    0.0    64   66.7    12    283.8    15.5    999.0   0.00  
 109   19:00    0.0    64   67.6    10    299.4    14.3    999.0   0.00  
 109   19:10    0.0    64   66.3     7    293.8     9.6    999.0   0.00  
 109   19:20    0.0    64   65.6     5    279.4     8.4    999.0   0.00  
 109   19:30    0.0    64   66.3     3    259.0     4.8    999.0   0.00  
 109   19:40    0.0    64   68.2     3    243.8     4.8    999.0   0.00  
 109   19:50    0.0    62   72.0     4    229.2     6.6    999.0   0.00  
 109   20:00    0.0    60   79.4     4    259.4     5.4    999.0   0.00  
 109   20:10    0.0    59   81.5     4    260.2     5.4    999.0   0.00  
 109   20:20    0.0    59   82.7     4    282.9     6.0    999.0   0.00  
 109   20:30    0.0    58   83.4     3    287.6     6.0    999.0   0.00  
 109   20:40    0.0    58   83.4     3     97.2     5.4    999.0   0.00  
 109   20:50    0.0    58   83.6     6    112.7     8.4    999.0   0.00  
 109   21:00    0.0    58   83.3     4    131.2     6.0    999.0   0.00  
 109   21:10    0.0    58   83.4     2    260.8     4.8    999.0   0.00  
 109   21:20    0.0    58   83.6     1    307.7     2.4    999.0   0.00  
 109   21:30    0.0    58   83.8     3    315.6     4.8    999.0   0.00  
 109   21:40    0.0    59   84.1     5    279.9     7.2    999.0   0.00  
 109   21:50    0.0    59   84.5     3    276.9     4.2    999.0   0.00  
 109   22:00    0.0    59   84.7     3    244.7     5.4    999.0   0.00  
 109   22:10    0.0    59   84.9     2    228.9     3.0    999.0   0.00  
 109   22:20    0.0    59   84.9     2    249.9     3.0    999.0   0.00  
 109   22:30    0.0    59   84.9     2    304.0     4.8    999.0   0.00  
 109   22:40    0.0    58   84.9     1    162.6     3.0    999.0   0.00  
 109   22:50    0.0    58   84.9     2     94.7     4.2    999.0   0.00  
 109   23:00    0.0    58   85.1     4     87.4     6.0    999.0   0.00  
 109   23:10    0.0    58   85.2     3     77.7     4.2    999.0   0.00  
 109   23:20    0.0    58   85.3     4     69.6     5.4    999.0   0.00  
 109   23:30    0.0    58   85.4     5     98.7     7.2    999.0   0.00  
 109   23:40    0.0    58   85.5     3    107.9     5.4    999.0   0.00  
 109   23:50    0.0    56   85.3     3     92.5     4.2    999.0   0.00  
 110    0:00    0.0    56   85.3     2     75.4     3.6    999.0   0.00  
 110    0:10    0.0    57   84.7     2    120.9     3.6    999.0   0.00  
 110    0:20    0.0    57   83.7     3     98.3     4.8    999.0   0.00  
 110    0:30    0.0    58   80.7     3     96.2     5.4    999.0   0.00  
 110    0:40    0.0    58   77.5     3    119.7     4.8    999.0   0.00  
 110    0:50    0.0    59   77.1     3    126.0     4.8    999.0   0.00  
 110    1:00    0.0    58   78.9     3     83.2     6.6    999.0   0.00  
 110    1:10    0.0    58   77.5     4    119.5     5.4    999.0   0.00  
 110    1:20    0.0    58   77.1     4     98.9     6.6    999.0   0.00  
 110    1:30    0.0    59   76.6     6     84.3     7.8    999.0   0.00  
 110    1:40    0.0    60   75.5     7     83.4     8.4    999.0   0.00  
 110    1:50    0.0    59   75.4     7     88.1    10.2    999.0   0.00  
 110    2:00    0.0    60   75.4     7     83.1     9.0    999.0   0.00  
 110    2:10    0.0    60   75.5     7     85.3     8.4    999.0   0.00  
 110    2:20    0.0    59   76.1     7     84.1     9.0    999.0   0.00  
 110    2:30    0.0    59   76.8     7     83.0     7.8    999.0   0.00  
 110    2:40    0.0    59   77.3     5     82.9     6.6    999.0   0.00  
 110    2:50    0.0    58   78.3     5     85.5     7.2    999.0   0.00  
 110    3:00    0.0    58   79.1     6     82.7     7.8    999.0   0.00  
 110    3:10    0.0    58   79.4     7     84.5     8.4    999.0   0.00  
 110    3:20    0.0    58   80.0     8     90.2    10.8    999.0   0.00  
 110    3:30    0.0    58   81.1     8     91.1    10.2    999.0   0.00  
 110    3:40    0.0    58   81.8     7     86.9     9.6    999.0   0.00  
 110    3:50    0.0    58   82.9     8     83.3     9.6    999.0   0.00  
 110    4:00    0.0    58   83.7     8     83.9    10.2    999.0   0.00  
 110    4:10    0.0    58   84.3     8     88.1     9.6    999.0   0.00  
 110    4:20    0.0    58   84.7     8     86.7     9.6    999.0   0.00  
 110    4:30    0.0    58   85.0     8     88.0    10.2    999.0   0.00  
 110    4:40    0.0    58   85.4     9     93.1    12.5    999.0   0.00  
 110    4:50    0.0    58   85.6    10     86.2    13.1    999.0   0.00  
 110    5:00    0.0    58   85.9    11     84.2    13.7    999.0   0.00  
 110    5:10    0.0    58   85.9    11     84.0    14.3    999.0   0.00  
 110    5:20    1.0    58   85.9    10     84.9    13.7    999.0   0.00  
 110    5:30    7.0    58   86.0    10     84.4    14.3    999.0   0.00  
 110    5:40   13.0    58   86.0    11     90.8    14.9    999.0   0.00  
 110    5:50   19.0    58   86.1    11     87.5    14.9    999.0   0.00  
 110    6:00   31.0    58   86.1    11     95.2    14.9    999.0   0.00  
 110    6:10   30.0    58   86.1    11     94.1    14.9    999.0   0.00  
 110    6:20   36.0    59   86.1    12     93.4    16.7    999.0   0.00  
 110    6:30   48.0    59   86.1    12     97.3    15.5    999.0   0.00  
 110    6:40   63.0    59   86.0    12     96.0    14.9    999.0   0.00  
 110    6:50   78.0    59   85.9    10     94.2    14.3    999.0   0.00  
 110    7:00  101.0    59   85.8     8     92.7    11.3    999.0   0.00  
 110    7:10  135.0    60   85.5     8    100.5    11.9    999.0   0.00  
 110    7:20  225.0    60   84.9     9    106.1    13.1    999.0   0.00  
 110    7:30  247.0    60   84.3     9    101.2    13.1    999.0   0.00  
 110    7:40  323.0    62   83.2     7    102.6    11.3    999.0   0.00  
 110    7:50  372.0    63   81.0     6    105.9    10.2    999.0   0.00  
 110    8:00  399.0    63   78.8     8    108.1    11.9    999.0   0.00  
 110    8:10  427.0    64   78.0     7    119.7    10.8    999.0   0.00  
 110    8:20  454.0    64   76.8     7    131.9    11.3    999.0   0.00  
 110    8:30  481.0    64   76.5     8    130.0    12.5    999.0   0.00  
 110    8:40  486.0    65   76.3     8    125.8    12.5    999.0   0.00  
 110    8:50  533.0    65   75.5     8    121.6    12.5    999.0   0.00  
 110    9:00  557.0    64   76.6     9    132.5    13.1    999.0   0.00  
 110    9:10  581.0    64   76.5     8    143.6    11.9    999.0   0.00  
 110    9:20  606.0    64   76.7     7    137.4    10.2    999.0   0.00  
 110    9:30  626.0    64   77.5     7    147.2    10.8    999.0   0.00  
 110    9:40  648.0    64   76.9     6    141.3     9.6    999.0   0.00  
 110    9:50  667.0    66   74.9     5    124.0     8.4    999.0   0.00  
 110   10:00  687.0    66   73.8     5    126.8     8.4    999.0   0.00  
 110   10:10  698.0    66   74.1     5    135.2     9.6    999.0   0.00  
 110   10:20  713.0    65   75.0     6    139.3     9.0    999.0   0.00  
 110   10:30  729.0    66   74.6     6    133.0    10.8    999.0   0.00  
 110   10:40  742.0    66   74.9     6    135.1     9.0    999.0   0.00  
 110   10:50  751.0    67   73.7     5    150.5     7.8    999.0   0.00  
 110   11:00  760.0    66   73.5     6    142.8     9.6    999.0   0.00  
 110   11:10  768.0    66   74.5     5    145.2     7.8    999.0   0.00  
 110   11:20  776.0    68   72.8     4    179.8     8.4    999.0   0.00  
 110   11:30  782.0    68   71.9     4    226.9     7.8    999.0   0.00  
 110   11:40  785.0    69   70.3     5    241.5     8.4    999.0   0.00  
 110   11:50  784.0    66   74.2     5    246.3     9.0    999.0   0.00  
 110   12:00  788.0    68   72.0     4    236.1     7.2    999.0   0.00  
 110   12:10  786.0    67   73.2     5    245.2     7.8    999.0   0.00  
 110   12:20  783.0    66   74.3     6    257.0     9.0    999.0   0.00  
 110   12:30  778.0    66   75.2     6    243.2    10.2    999.0   0.00  
 110   12:40  774.0    67   74.5     6    252.3     8.4    999.0   0.00  
 110   12:50  767.0    67   73.6     6    249.3     8.4    999.0   0.00  
 110   13:00  760.0    67   73.9     5    254.1     7.2    999.0   0.00  
 110   13:10  748.0    67   73.6     6    248.4     8.4    999.0   0.00  
 110   13:20  735.0    66   75.0     6    241.0     9.6    999.0   0.00  
 110   13:30  723.0    67   74.0     7    238.2    10.2    999.0   0.00  
 110   13:40  707.0    66   75.0     8    240.3    11.3    999.0   0.00  
 110   13:50  690.0    67   74.3     9    236.0    13.1    999.0   0.00  
 110   14:00  674.0    68   72.4     8    240.9    10.8    999.0   0.00  
 110   14:10  657.0    69   71.8     8    237.8    11.3    999.0   0.00  
 110   14:20  637.0    69   70.7     7    244.1    11.3    999.0   0.00  
 110   14:30  615.0    68   72.6    10    250.8    13.7    999.0   0.00  
 110   14:40  593.0    68   72.2     9    240.6    13.7    999.0   0.00  
 110   14:50  571.0    69   71.5     8    239.2    12.5    999.0   0.00  
 110   15:00  547.0    68   72.0     7    242.7    11.3    999.0   0.00  
 110   15:10  523.0    69   70.9     7    223.0    10.8    999.0   0.00  
 110   15:20  499.0    71   69.0     5    236.6     9.0    999.0   0.00  
 110   15:30  475.0    72   66.5     8    268.1    11.9    999.0   0.00  
 110   15:40  448.0    72   67.4     8    264.4    13.1    999.0   0.00  
 110   15:50  421.0    73   64.7     4    244.3     7.2    999.0   0.00  

Return to Wild Boar Gully graphs page.


Western Regional Climate Center,wrcc@dri.edu